createdAt,value
2022-10-16T00:01:13.042Z,101100.63
2022-10-16T00:03:41.414Z,101091.28
2022-10-16T00:06:09.166Z,101092.47
2022-10-16T00:08:36.307Z,101087.00
2022-10-16T00:11:06.403Z,101092.84
2022-10-16T00:13:34.427Z,101091.28
2022-10-16T00:16:01.771Z,101092.06
2022-10-16T00:18:29.780Z,101099.06
2022-10-16T00:23:23.166Z,101101.00
2022-10-16T00:25:57.869Z,101107.25
2022-10-16T00:28:24.564Z,101114.25
2022-10-16T00:30:51.215Z,101106.06
2022-10-16T00:33:17.766Z,101099.47
2022-10-16T00:35:44.854Z,101104.50
2022-10-16T00:38:11.429Z,101097.13
2022-10-16T00:40:38.143Z,101090.91
2022-10-16T00:43:13.578Z,101092.47
2022-10-16T00:45:40.326Z,101093.63
2022-10-16T00:48:14.831Z,101090.13
2022-10-16T00:50:45.445Z,101096.75
2022-10-16T00:53:12.994Z,101094.44
2022-10-16T00:55:42.399Z,101092.47
2022-10-16T00:58:09.385Z,101095.22
2022-10-16T01:00:36.329Z,101097.97
2022-10-16T01:03:03.955Z,101094.81
2022-10-16T01:05:45.946Z,101103.03
2022-10-16T01:08:28.931Z,101105.34
2022-10-16T01:11:05.222Z,101102.63
2022-10-16T01:13:39.667Z,101111.97
2022-10-16T01:16:17.838Z,101105.75
2022-10-16T01:18:49.033Z,101108.09
2022-10-16T01:21:27.327Z,101107.72
2022-10-16T01:24:04.504Z,101096.44
2022-10-16T01:27:07.573Z,101094.47
2022-10-16T01:29:59.054Z,101101.09
2022-10-16T01:32:41.458Z,101099.19
2022-10-16T01:35:18.816Z,101108.91
2022-10-16T01:37:56.346Z,101106.19
2022-10-16T01:40:27.383Z,101101.50
2022-10-16T01:43:01.000Z,101106.97
2022-10-16T01:45:30.644Z,101104.22
2022-10-16T01:47:58.611Z,101105.44
2022-10-16T01:50:26.301Z,101100.75
2022-10-16T01:52:56.595Z,101096.84
2022-10-16T01:55:30.842Z,101100.34
2022-10-16T01:58:00.897Z,101086.31
2022-10-16T02:00:29.087Z,101098.00
2022-10-16T02:02:59.986Z,101094.13
2022-10-16T02:05:35.111Z,101085.19
2022-10-16T02:08:04.858Z,101086.69
2022-10-16T02:10:33.195Z,101091.00
2022-10-16T02:13:07.936Z,101092.16
2022-10-16T02:15:34.733Z,101091.00
2022-10-16T02:18:02.179Z,101093.72
2022-10-16T02:20:33.853Z,101103.47
2022-10-16T02:23:02.328Z,101100.75
2022-10-16T02:25:37.585Z,101095.28
2022-10-16T02:28:10.480Z,101108.16
2022-10-16T02:30:44.769Z,101108.16
2022-10-16T02:33:14.696Z,101101.91
2022-10-16T02:35:42.679Z,101099.97
2022-10-16T02:40:38.216Z,101104.66
2022-10-16T02:43:07.103Z,101117.50
2022-10-16T02:45:34.322Z,101112.44
2022-10-16T02:48:00.835Z,101113.22
2022-10-16T02:50:27.425Z,101122.56
2022-10-16T02:52:54.071Z,101121.00
2022-10-16T02:55:20.737Z,101114.00
2022-10-16T02:57:47.304Z,101120.22
2022-10-16T03:00:16.266Z,101123.72
2022-10-16T03:02:42.753Z,101124.91
2022-10-16T03:05:10.165Z,101126.03
2022-10-16T03:07:36.843Z,101131.09
2022-10-16T03:10:03.591Z,101127.22
2022-10-16T03:12:30.661Z,101108.13
2022-10-16T03:14:57.810Z,101113.22
2022-10-16T03:17:25.094Z,101106.19
2022-10-16T03:19:52.389Z,101104.63
2022-10-16T03:22:18.881Z,101115.16
2022-10-16T03:24:45.441Z,101107.34
2022-10-16T03:27:11.993Z,101116.69
2022-10-16T03:29:38.511Z,101118.22
2022-10-16T03:32:05.067Z,101129.94
2022-10-16T03:34:31.790Z,101126.41
2022-10-16T03:36:58.583Z,101127.22
2022-10-16T03:39:25.164Z,101122.94
2022-10-16T03:41:51.632Z,101134.63
2022-10-16T03:44:19.416Z,101129.16
2022-10-16T03:46:45.902Z,101140.44
2022-10-16T03:49:12.848Z,101145.50
2022-10-16T03:51:39.524Z,101133.81
2022-10-16T03:54:06.097Z,101143.56
2022-10-16T03:56:32.742Z,101137.69
2022-10-16T03:58:59.218Z,101145.47
2022-10-16T04:01:25.950Z,101146.66
2022-10-16T04:03:52.470Z,101140.03
2022-10-16T04:06:19.027Z,101148.97
2022-10-16T04:08:45.795Z,101159.09
2022-10-16T04:11:12.354Z,101157.53
2022-10-16T04:13:38.898Z,101159.88
2022-10-16T04:16:05.872Z,101152.06
2022-10-16T04:18:32.369Z,101170.38
2022-10-16T04:21:03.806Z,101174.25
2022-10-16T04:23:30.326Z,101182.81
2022-10-16T04:25:56.777Z,101183.97
2022-10-16T04:28:23.344Z,101183.19
2022-10-16T04:30:49.915Z,101185.94
2022-10-16T04:33:16.455Z,101193.69
2022-10-16T04:35:42.930Z,101192.94
2022-10-16T04:38:09.485Z,101193.31
2022-10-16T04:40:37.867Z,101194.47
2022-10-16T04:43:05.430Z,101201.91
2022-10-16T04:45:31.921Z,101195.66
2022-10-16T04:47:59.860Z,101203.84
2022-10-16T04:50:26.556Z,101199.16
2022-10-16T04:52:53.134Z,101203.44
2022-10-16T04:55:19.641Z,101213.56
2022-10-16T04:57:46.139Z,101216.69
2022-10-16T05:00:13.680Z,101219.00
2022-10-16T05:02:40.208Z,101221.38
2022-10-16T05:05:07.123Z,101220.59
2022-10-16T05:07:33.763Z,101226.81
2022-10-16T05:10:00.363Z,101224.88
2022-10-16T05:12:26.943Z,101230.69
2022-10-16T05:14:53.421Z,101228.34
2022-10-16T05:17:19.905Z,101240.00
2022-10-16T05:19:46.437Z,101238.84
2022-10-16T05:22:13.003Z,101252.47
2022-10-16T05:24:39.486Z,101244.28
2022-10-16T05:27:05.960Z,101255.97
2022-10-16T05:29:32.936Z,101253.97
2022-10-16T05:31:59.538Z,101257.88
2022-10-16T05:34:26.110Z,101268.00
2022-10-16T05:36:52.631Z,101275.41
2022-10-16T05:39:19.523Z,101273.03
2022-10-16T05:41:46.402Z,101278.50
2022-10-16T05:44:13.082Z,101290.16
2022-10-16T05:46:39.825Z,101288.22
2022-10-16T05:49:06.452Z,101290.56
2022-10-16T05:51:32.963Z,101286.69
2022-10-16T05:53:59.597Z,101289.03
2022-10-16T05:56:26.449Z,101305.03
2022-10-16T05:58:52.940Z,101315.56
2022-10-16T06:01:21.668Z,101316.34
2022-10-16T06:03:48.280Z,101319.06
2022-10-16T06:06:23.919Z,101320.25
2022-10-16T06:08:51.168Z,101322.59
2022-10-16T06:11:20.795Z,101317.16
2022-10-16T06:13:51.323Z,101324.19
2022-10-16T06:16:18.106Z,101323.00
2022-10-16T06:18:44.970Z,101337.81
2022-10-16T06:21:15.314Z,101334.72
2022-10-16T06:23:41.894Z,101331.22
2022-10-16T06:26:11.672Z,101355.75
2022-10-16T06:28:39.158Z,101355.41
2022-10-16T06:31:08.411Z,101353.09
2022-10-16T06:33:35.869Z,101367.91
2022-10-16T06:36:12.250Z,101349.59
2022-10-16T06:38:39.559Z,101347.28
2022-10-16T06:41:07.726Z,101355.09
2022-10-16T06:43:36.290Z,101363.25
2022-10-16T06:46:04.411Z,101364.03
2022-10-16T06:48:32.397Z,101372.22
2022-10-16T06:51:02.267Z,101376.91
2022-10-16T06:53:40.079Z,101379.25
2022-10-16T06:56:22.845Z,101381.22
2022-10-16T06:58:50.184Z,101383.56
2022-10-16T07:01:18.764Z,101371.91
2022-10-16T07:03:46.889Z,101373.06
2022-10-16T07:06:16.079Z,101359.84
2022-10-16T07:08:44.448Z,101364.56
2022-10-16T07:11:14.132Z,101382.88
2022-10-16T07:13:43.008Z,101382.50
2022-10-16T07:16:12.909Z,101398.13
2022-10-16T07:18:41.230Z,101403.59
2022-10-16T07:21:10.039Z,101409.44
2022-10-16T07:23:36.595Z,101408.28
2022-10-16T07:26:04.175Z,101414.94
2022-10-16T07:28:32.108Z,101416.50
2022-10-16T07:31:05.319Z,101418.06
2022-10-16T07:33:35.083Z,101428.63
2022-10-16T07:36:02.009Z,101441.47
2022-10-16T07:38:28.980Z,101435.66
2022-10-16T07:40:59.010Z,101450.09
2022-10-16T07:43:26.557Z,101446.56
2022-10-16T07:45:54.151Z,101455.91
2022-10-16T07:48:20.881Z,101467.63
2022-10-16T07:50:47.439Z,101467.63
2022-10-16T07:53:14.320Z,101478.13
2022-10-16T07:55:40.858Z,101490.19
2022-10-16T07:58:08.244Z,101494.88
2022-10-16T08:00:37.010Z,101497.59
2022-10-16T08:03:03.632Z,101492.94
2022-10-16T08:05:32.275Z,101493.34
2022-10-16T08:07:58.803Z,101498.84
2022-10-16T08:10:27.735Z,101503.47
2022-10-16T08:12:54.604Z,101503.13
2022-10-16T08:15:22.156Z,101507.44
2022-10-16T08:18:03.556Z,101507.06
2022-10-16T08:20:32.037Z,101517.63
2022-10-16T08:22:58.601Z,101511.75
2022-10-16T08:25:25.806Z,101520.41
2022-10-16T08:27:52.553Z,101526.25
2022-10-16T08:30:21.062Z,101515.75
2022-10-16T08:32:47.892Z,101515.41
2022-10-16T08:35:15.054Z,101531.84
2022-10-16T08:37:42.404Z,101534.59
2022-10-16T08:40:19.721Z,101540.03
2022-10-16T08:42:54.304Z,101532.66
2022-10-16T08:45:29.782Z,101538.53
2022-10-16T08:48:17.766Z,101554.56
2022-10-16T08:50:46.778Z,101560.81
2022-10-16T08:53:24.572Z,101563.16
2022-10-16T08:55:53.535Z,101571.78
2022-10-16T08:58:23.153Z,101568.69
2022-10-16T09:00:56.025Z,101563.63
2022-10-16T09:03:36.592Z,101580.81
2022-10-16T09:06:23.285Z,101571.06
2022-10-16T09:09:04.626Z,101573.06
2022-10-16T09:11:43.180Z,101580.13
2022-10-16T09:14:19.054Z,101592.19
2022-10-16T09:16:52.698Z,101579.34
2022-10-16T09:19:30.310Z,101589.13
2022-10-16T09:22:03.837Z,101600.88
2022-10-16T09:24:31.213Z,101599.72
2022-10-16T09:26:57.697Z,101594.28
2022-10-16T09:29:26.274Z,101609.94
2022-10-16T09:31:56.958Z,101599.03
2022-10-16T09:34:36.858Z,101610.75
2022-10-16T09:37:09.718Z,101615.06
2022-10-16T09:39:47.506Z,101614.72
2022-10-16T09:42:21.407Z,101608.50
2022-10-16T09:44:51.531Z,101608.13
2022-10-16T09:47:23.654Z,101611.66
2022-10-16T09:50:02.351Z,101617.53
2022-10-16T09:52:31.557Z,101622.25
2022-10-16T09:54:59.953Z,101634.41
2022-10-16T09:57:27.920Z,101633.28
2022-10-16T09:59:59.620Z,101629.78
2022-10-16T10:02:32.523Z,101636.84
2022-10-16T10:05:00.270Z,101646.63
2022-10-16T10:07:29.521Z,101641.56
2022-10-16T10:09:58.289Z,101642.72
2022-10-16T10:12:28.920Z,101637.66
2022-10-16T10:14:59.044Z,101636.09
2022-10-16T10:17:27.545Z,101644.31
2022-10-16T10:19:58.220Z,101638.84
2022-10-16T10:22:45.239Z,101639.63
2022-10-16T10:25:12.756Z,101645.50
2022-10-16T10:27:58.587Z,101657.63
2022-10-16T10:30:44.050Z,101654.50
2022-10-16T10:33:25.642Z,101665.84
2022-10-16T10:36:09.761Z,101654.88
2022-10-16T10:38:36.322Z,101660.75
2022-10-16T10:41:22.525Z,101665.88
2022-10-16T10:44:10.658Z,101668.19
2022-10-16T10:46:45.402Z,101670.56
2022-10-16T10:49:27.650Z,101674.84
2022-10-16T10:52:14.249Z,101680.72
2022-10-16T10:54:41.754Z,101672.09
2022-10-16T10:57:31.061Z,101685.00
2022-10-16T11:00:09.013Z,101676.41
2022-10-16T11:02:45.662Z,101678.00
2022-10-16T11:05:28.669Z,101679.56
2022-10-16T11:07:59.723Z,101685.03
2022-10-16T11:10:35.772Z,101688.56
2022-10-16T11:13:21.235Z,101690.91
2022-10-16T11:15:52.855Z,101696.78
2022-10-16T11:18:26.107Z,101698.34
2022-10-16T11:20:58.285Z,101701.50
2022-10-16T11:23:34.732Z,101702.66
2022-10-16T11:26:07.697Z,101705.41
2022-10-16T11:28:39.308Z,101723.41
2022-10-16T11:31:17.240Z,101721.47
2022-10-16T11:33:56.242Z,101719.09
2022-10-16T11:36:27.148Z,101712.44
2022-10-16T11:39:17.448Z,101717.53
2022-10-16T11:41:48.127Z,101716.75
2022-10-16T11:44:37.145Z,101719.88
2022-10-16T11:47:53.917Z,101725.75
2022-10-16T11:50:23.862Z,101719.09
2022-10-16T11:52:57.663Z,101719.88
2022-10-16T11:55:32.419Z,101719.09
2022-10-16T11:58:04.395Z,101734.38
2022-10-16T12:00:47.345Z,101725.34
2022-10-16T12:03:24.058Z,101730.84
2022-10-16T12:06:20.258Z,101734.38
2022-10-16T12:08:47.829Z,101730.06
2022-10-16T12:11:39.355Z,101732.41
2022-10-16T12:14:08.307Z,101735.19
2022-10-16T12:16:34.943Z,101739.09
2022-10-16T12:19:16.170Z,101746.16
2022-10-16T12:21:44.261Z,101738.31
2022-10-16T12:24:29.292Z,101736.72
2022-10-16T12:26:56.232Z,101736.72
2022-10-16T12:29:43.134Z,101737.13
2022-10-16T12:32:46.632Z,101748.50
2022-10-16T12:35:24.887Z,101756.34
2022-10-16T12:37:52.753Z,101761.81
2022-10-16T12:40:23.198Z,101753.19
2022-10-16T12:42:49.814Z,101753.16
2022-10-16T12:45:28.410Z,101747.69
2022-10-16T12:47:56.952Z,101748.47
2022-10-16T12:50:29.698Z,101747.31
2022-10-16T12:52:56.393Z,101755.53
2022-10-16T12:55:23.990Z,101754.78
2022-10-16T12:58:01.194Z,101759.06
2022-10-16T13:00:40.092Z,101766.53
2022-10-16T13:03:17.778Z,101757.09
2022-10-16T13:05:44.215Z,101760.22
2022-10-16T13:08:49.251Z,101754.34
2022-10-16T13:11:40.943Z,101756.31
2022-10-16T13:14:30.328Z,101755.53
2022-10-16T13:17:13.209Z,101751.22
2022-10-16T13:19:46.755Z,101754.75
2022-10-16T13:22:22.161Z,101763.34
2022-10-16T13:25:04.365Z,101764.16
2022-10-16T13:28:03.794Z,101774.72
2022-10-16T13:30:35.516Z,101773.94
2022-10-16T13:33:08.984Z,101778.25
2022-10-16T13:35:37.271Z,101782.53
2022-10-16T13:38:12.646Z,101785.28
2022-10-16T13:40:50.229Z,101787.25
2022-10-16T13:43:20.527Z,101788.81
2022-10-16T13:45:54.876Z,101802.16
2022-10-16T13:48:21.465Z,101790.00
2022-10-16T13:51:00.039Z,101778.25
2022-10-16T13:53:26.706Z,101782.56
2022-10-16T13:55:53.437Z,101781.38
2022-10-16T13:58:20.786Z,101789.22
2022-10-16T14:00:58.062Z,101793.53
2022-10-16T14:03:26.050Z,101799.03
2022-10-16T14:05:55.630Z,101805.28
2022-10-16T14:08:25.020Z,101805.66
2022-10-16T14:10:55.650Z,101806.09
2022-10-16T14:13:32.689Z,101801.38
2022-10-16T14:16:02.279Z,101800.59
2022-10-16T14:18:33.423Z,101804.50
2022-10-16T14:21:13.275Z,101797.47
2022-10-16T14:23:42.316Z,101793.53
2022-10-16T14:26:14.961Z,101798.66
2022-10-16T14:28:42.917Z,101795.91
2022-10-16T14:31:25.915Z,101790.78
2022-10-16T14:33:52.476Z,101799.03
2022-10-16T14:36:20.478Z,101797.47
2022-10-16T14:39:03.948Z,101794.34
2022-10-16T14:41:33.066Z,101790.81
2022-10-16T14:44:04.918Z,101799.03
2022-10-16T14:46:36.966Z,101803.34
2022-10-16T14:49:10.206Z,101803.75
2022-10-16T14:51:38.364Z,101797.47
2022-10-16T14:54:05.430Z,101803.75
2022-10-16T14:56:48.903Z,101804.91
2022-10-16T14:59:31.513Z,101815.47
2022-10-16T15:01:58.238Z,101812.38
2022-10-16T15:04:30.107Z,101807.25
2022-10-16T15:06:56.952Z,101798.25
2022-10-16T15:12:24.804Z,101798.25
2022-10-16T15:14:53.969Z,101801.72
2022-10-16T15:17:24.168Z,101801.38
2022-10-16T15:19:52.339Z,101791.16
2022-10-16T15:22:19.156Z,101801.72
2022-10-16T15:24:47.609Z,101797.81
2022-10-16T15:43:53.562Z,101796.97
2022-10-16T15:52:40.556Z,101802.44
2022-10-16T15:55:19.806Z,101798.88
2022-10-16T15:57:46.941Z,101797.31
2022-10-16T16:00:18.892Z,101795.34
2022-10-16T16:02:52.787Z,101795.31
2022-10-16T16:05:20.626Z,101802.38
2022-10-16T16:07:47.456Z,101807.44
2022-10-16T16:10:14.637Z,101814.06
2022-10-16T16:13:00.381Z,101810.53
2022-10-16T16:19:21.879Z,101819.50
2022-10-16T16:29:32.750Z,101809.69
2022-10-16T16:32:26.981Z,101799.88
2022-10-16T17:15:55.240Z,101834.25
2022-10-16T19:56:22.200Z,101913.00
2022-10-16T19:58:51.540Z,101914.56
2022-10-16T20:01:18.536Z,101918.47
2022-10-16T20:03:48.197Z,101913.38
2022-10-16T20:06:16.223Z,101896.97
2022-10-16T20:08:45.687Z,101892.28
2022-10-16T20:11:26.980Z,101880.22
2022-10-16T20:14:31.903Z,101881.78
2022-10-16T20:16:58.548Z,101887.25
2022-10-16T21:58:03.281Z,101824.91
2022-10-16T22:04:04.439Z,101802.28
2022-10-16T22:06:31.110Z,101793.69
2022-10-16T22:09:01.571Z,101796.81
2022-10-16T22:12:03.440Z,101785.88
2022-10-16T22:14:56.245Z,101772.59
2022-10-16T22:17:22.813Z,101781.16
2022-10-16T22:19:49.536Z,101785.84
2022-10-16T22:22:16.108Z,101800.25
2022-10-16T22:24:43.883Z,101801.00
2022-10-16T22:27:10.509Z,101794.75
2022-10-16T22:29:37.149Z,101809.91
2022-10-16T22:32:03.787Z,101814.97
2022-10-16T22:34:30.677Z,101805.22
2022-10-16T22:36:57.258Z,101802.47
2022-10-16T22:39:23.929Z,101794.22
2022-10-16T22:41:50.474Z,101801.28
2022-10-16T22:44:17.100Z,101799.69
2022-10-16T22:46:43.693Z,101805.91
2022-10-16T22:49:10.332Z,101804.34
2022-10-16T22:51:38.072Z,101804.72
2022-10-16T22:54:04.686Z,101794.94
2022-10-16T22:56:31.330Z,101796.91
2022-10-16T22:58:57.920Z,101805.09
2022-10-16T23:01:28.985Z,101804.31
2022-10-16T23:03:55.977Z,101801.59
2022-10-16T23:06:22.910Z,101792.59
2022-10-16T23:08:52.956Z,101787.16
2022-10-16T23:11:19.576Z,101783.25
2022-10-16T23:13:46.314Z,101785.19
2022-10-16T23:16:15.853Z,101796.13
2022-10-16T23:18:43.832Z,101803.91
2022-10-16T23:21:13.975Z,101810.53
2022-10-16T23:23:41.928Z,101814.03
2022-10-16T23:26:11.058Z,101806.63
2022-10-16T23:28:38.632Z,101811.31
2022-10-16T23:31:06.332Z,101805.06
2022-10-16T23:33:34.095Z,101813.59
2022-10-16T23:36:05.136Z,101810.88
2022-10-16T23:38:31.783Z,101801.47
2022-10-16T23:40:58.456Z,101799.13
2022-10-16T23:43:25.017Z,101803.03
2022-10-16T23:45:51.664Z,101794.41
2022-10-16T23:48:18.362Z,101788.53
2022-10-16T23:50:45.047Z,101787.75
2022-10-16T23:53:11.688Z,101796.69
2022-10-16T23:55:38.354Z,101795.47
2022-10-16T23:58:05.053Z,101788.81
